Time;durP1;ratioP1;P1;durP2;ratioP2;P2;SDS_P1;SDS_P2;PMS_P1;PMS_P2;Temp;Humidity;BMP_temperature;BMP_pressure;BME280_temperature;BME280_humidity;BME280_pressure;Samples;Min_cycle;Max_cycle;Signal;HPM_P1;HPM_P2
2021/11/26 00:00:19;;;;;;;42.10;24.60;;;;;;;-3.78;80.54;97024.14;108039;1275;71432;-68
2021/11/26 00:03:08;;;;;;;34.30;20.10;;;;;;;-3.79;80.89;97018.39;108011;1271;68465;-68
2021/11/26 00:05:38;;;;;;;16.80;10.10;;;;;;;-3.80;80.95;97011.41;108028;1272;68623;-68
2021/11/26 00:08:07;;;;;;;48.40;28.40;;;;;;;-3.81;80.77;97013.64;108006;1272;59770;-68
2021/11/26 00:10:37;;;;;;;47.80;27.50;;;;;;;-3.82;80.29;97018.78;108008;1272;59714;-68
2021/11/26 00:13:08;;;;;;;26.60;17.30;;;;;;;-3.89;80.59;97018.61;108032;1272;70927;-68
2021/11/26 00:15:40;;;;;;;35.90;23.00;;;;;;;-3.93;80.98;97018.34;108088;1272;67886;-68
2021/11/26 00:18:19;;;;;;;20.00;13.10;;;;;;;-3.98;80.89;97018.11;108064;1272;68455;-68
2021/11/26 00:20:49;;;;;;;28.10;17.30;;;;;;;-4.00;80.25;97016.29;108063;1272;59722;-68
2021/11/26 00:23:19;;;;;;;32.30;20.40;;;;;;;-4.01;80.31;97015.29;108029;1274;59726;-68
2021/11/26 00:25:48;;;;;;;45.70;26.10;;;;;;;-4.05;80.58;97011.46;108077;1272;71580;-68
2021/11/26 00:28:17;;;;;;;36.80;24.00;;;;;;;-4.10;80.30;97011.22;108057;1274;68415;-68
2021/11/26 00:30:48;;;;;;;28.10;15.60;;;;;;;-4.14;80.15;97011.81;108022;1275;68717;-68
2021/11/26 00:33:18;;;;;;;39.70;25.20;;;;;;;-4.19;80.29;97009.85;108043;1275;59754;-68
2021/11/26 00:35:48;;;;;;;28.00;17.10;;;;;;;-4.23;80.66;97009.63;108025;1272;59713;-68
2021/11/26 00:38:18;;;;;;;31.20;19.20;;;;;;;-4.27;80.35;97010.88;108046;1272;71382;-68
2021/11/26 00:40:48;;;;;;;;;;;;;;;-4.29;79.87;97007.38;108109;1272;68640;-68
2021/11/26 00:43:17;;;;;;;23.80;14.70;;;;;;;-4.33;80.17;97009.14;108014;1272;68467;-68
2021/11/26 00:45:51;;;;;;;36.00;18.90;;;;;;;-4.35;80.98;97005.60;108043;1271;59655;-68
2021/11/26 00:48:20;;;;;;;22.70;13.70;;;;;;;-4.35;80.30;97002.04;107835;1275;59781;-66
2021/11/26 00:50:50;;;;;;;21.90;14.60;;;;;;;-4.30;80.53;97002.11;108015;1272;71638;-70
2021/11/26 00:53:20;;;;;;;24.60;16.70;;;;;;;-4.29;81.21;96998.19;108056;1272;67917;-67
2021/11/26 00:55:49;;;;;;;35.40;20.30;;;;;;;-4.31;81.43;96996.50;108035;1272;68420;-67
2021/11/26 00:58:19;;;;;;;40.50;21.00;;;;;;;-4.33;80.85;96992.80;107965;1275;59765;-67
2021/11/26 01:00:48;;;;;;;36.80;21.70;;;;;;;-4.35;80.44;96990.63;107948;1273;59793;-67
2021/11/26 01:03:18;;;;;;;17.00;11.80;;;;;;;-4.37;80.59;96990.17;108011;1275;71566;-67
2021/11/26 01:05:49;;;;;;;28.30;16.80;;;;;;;-4.39;80.61;96989.17;108069;1272;68673;-67
2021/11/26 01:08:21;;;;;;;48.30;25.00;;;;;;;-4.38;81.25;96980.66;108035;1272;69445;-68
2021/11/26 01:10:53;;;;;;;25.70;16.20;;;;;;;-4.38;81.10;96973.17;107999;1273;59812;-68
2021/11/26 01:13:23;;;;;;;23.30;14.30;;;;;;;-4.39;81.22;96970.98;108047;1271;59710;-67
2021/11/26 01:15:53;;;;;;;23.70;15.60;;;;;;;-4.41;81.39;96964.73;108086;1272;71512;-67
2021/11/26 01:18:23;;;;;;;23.80;14.50;;;;;;;-4.43;81.14;96967.66;108046;1271;68465;-67
2021/11/26 01:20:52;;;;;;;21.70;14.80;;;;;;;-4.46;81.08;96971.13;107941;1272;68293;-68
2021/11/26 01:23:24;;;;;;;34.60;19.10;;;;;;;-4.47;80.95;96965.54;108005;1272;59706;-67
2021/11/26 01:25:54;;;;;;;27.50;15.40;;;;;;;-4.49;80.45;96963.02;107957;1273;59776;-68
2021/11/26 01:28:23;;;;;;;24.00;13.70;;;;;;;-4.51;81.12;96957.27;108169;1272;71449;-68
2021/11/26 01:30:53;;;;;;;18.30;12.00;;;;;;;-4.46;81.55;96958.38;108080;1272;68271;-68
2021/11/26 01:33:24;;;;;;;26.10;15.00;;;;;;;-4.44;81.72;96957.14;108050;1272;69248;-69
2021/11/26 01:35:54;;;;;;;16.20;9.70;;;;;;;-4.44;81.95;96957.80;108089;1272;59754;-69
2021/11/26 01:38:25;;;;;;;25.40;14.70;;;;;;;-4.42;81.65;96957.11;108056;1272;59675;-68
2021/11/26 01:40:55;;;;;;;24.90;13.90;;;;;;;-4.42;81.64;96955.92;107989;1275;69974;-69
2021/11/26 01:43:24;;;;;;;19.00;11.60;;;;;;;-4.43;81.51;96952.20;108028;1271;68618;-68
2021/11/26 01:46:08;;;;;;;29.40;19.00;;;;;;;-4.43;81.38;96945.88;108058;1272;68639;-68
2021/11/26 01:48:42;;;;;;;28.10;17.60;;;;;;;-4.44;81.24;96938.42;108078;1272;59735;-69
2021/11/26 01:51:12;;;;;;;24.60;15.10;;;;;;;-4.47;81.76;96937.48;108130;1272;59725;-68
2021/11/26 01:53:41;;;;;;;;;;;;;;;-4.49;81.52;96936.31;108071;1272;69661;-69
2021/11/26 01:56:11;;;;;;;30.20;17.70;;;;;;;-4.51;81.19;96929.90;108058;1272;68550;-68
2021/11/26 01:58:42;;;;;;;21.70;15.40;;;;;;;-4.53;81.42;96927.73;108012;1272;69521;-69
2021/11/26 02:01:12;;;;;;;31.50;17.60;;;;;;;-4.55;81.89;96926.91;108039;1275;59777;-68
2021/11/26 02:03:43;;;;;;;22.90;13.10;;;;;;;-4.56;81.80;96929.50;107994;1274;59718;-69
2021/11/26 02:06:13;;;;;;;35.20;19.90;;;;;;;-4.56;81.47;96926.10;108051;1272;71648;-68
2021/11/26 02:08:43;;;;;;;29.20;17.40;;;;;;;-4.55;81.88;96919.44;108065;1272;67681;-68
2021/11/26 02:11:14;;;;;;;36.70;21.00;;;;;;;-4.56;81.97;96914.53;108037;1271;68818;-69
2021/11/26 02:13:44;;;;;;;29.00;17.30;;;;;;;-4.57;81.97;96908.43;108001;1274;59789;-68
2021/11/26 02:16:15;;;;;;;27.60;16.60;;;;;;;-4.59;82.30;96899.45;108031;1272;59777;-69
2021/11/26 02:18:49;;;;;;;43.10;23.80;;;;;;;-4.59;82.22;96891.64;108093;1272;71595;-68
2021/11/26 02:21:20;;;;;;;43.00;23.30;;;;;;;-4.58;81.42;96884.81;107826;1275;67843;-69
2021/11/26 02:23:51;;;;;;;43.00;23.70;;;;;;;-4.57;81.50;96879.53;107946;1275;68692;-68
2021/11/26 02:26:21;;;;;;;44.50;23.80;;;;;;;-4.56;81.72;96875.92;108025;1275;60211;-68
2021/11/26 02:28:51;;;;;;;27.40;16.60;;;;;;;-4.54;81.99;96871.13;108068;1275;60151;-69
2021/11/26 02:31:21;;;;;;;37.80;20.20;;;;;;;-4.52;82.17;96870.92;108021;1274;71567;-69
2021/11/26 02:33:51;;;;;;;32.40;19.10;;;;;;;-4.52;82.47;96864.60;108015;1275;67859;-69
2021/11/26 02:36:21;;;;;;;;;;;;;;;-4.50;82.42;96856.58;108050;1272;69428;-69
2021/11/26 02:38:52;;;;;;;30.30;17.30;;;;;;;-4.51;82.16;96845.54;107956;1272;59793;-69
2021/11/26 02:41:22;;;;;;;38.70;21.10;;;;;;;-4.52;82.09;96835.86;108024;1272;59693;-69
2021/11/26 02:43:54;;;;;;;39.50;22.10;;;;;;;-4.53;82.33;96823.46;108083;1272;70559;-68
2021/11/26 02:46:24;;;;;;;48.00;23.80;;;;;;;-4.56;82.38;96820.13;108077;1272;67874;-69
2021/11/26 02:48:54;;;;;;;41.10;22.30;;;;;;;-4.60;82.32;96814.78;108053;1272;69263;-68
2021/11/26 02:51:24;;;;;;;36.70;22.30;;;;;;;-4.63;82.18;96806.86;107866;1277;59786;-68
2021/11/26 02:53:54;;;;;;;41.60;23.80;;;;;;;-4.64;82.14;96806.37;108034;1272;59706;-68
2021/11/26 02:56:24;;;;;;;17.40;12.10;;;;;;;-4.67;82.57;96801.33;108045;1272;70804;-69
2021/11/26 02:58:56;;;;;;;19.50;12.20;;;;;;;-4.69;82.59;96793.38;108025;1275;68418;-68
2021/11/26 03:01:26;;;;;;;17.20;10.20;;;;;;;-4.70;82.46;96789.83;107997;1276;69489;-69
2021/11/26 03:03:57;;;;;;;24.00;15.70;;;;;;;-4.66;82.25;96787.89;107979;1275;59748;-69
2021/11/26 03:06:27;;;;;;;45.90;27.00;;;;;;;-4.62;82.80;96777.07;108053;1275;59738;-69
2021/11/26 03:08:59;;;;;;;47.30;26.40;;;;;;;-4.59;82.83;96778.38;108047;1274;71554;-69
2021/11/26 03:11:30;;;;;;;28.00;16.30;;;;;;;-4.53;83.41;96774.84;108069;1272;67730;-69
2021/11/26 03:14:01;;;;;;;31.20;18.60;;;;;;;-4.48;83.55;96769.61;108034;1274;68635;-68
2021/11/26 03:16:30;;;;;;;33.50;20.60;;;;;;;-4.47;83.64;96763.45;108008;1274;59725;-69
2021/11/26 03:19:00;;;;;;;24.90;14.60;;;;;;;-4.45;83.53;96761.38;107955;1274;59748;-68
2021/11/26 03:21:30;;;;;;;24.80;15.10;;;;;;;-4.46;83.53;96759.02;108044;1271;70639;-69
2021/11/26 03:24:00;;;;;;;23.60;13.40;;;;;;;-4.47;83.48;96757.53;108050;1272;67826;-69
2021/11/26 03:26:30;;;;;;;37.50;20.80;;;;;;;-4.49;83.41;96758.92;108001;1275;68787;-68
2021/11/26 03:29:00;;;;;;;40.20;22.10;;;;;;;-4.50;83.08;96763.88;108032;1271;59716;-68
2021/11/26 03:31:30;;;;;;;37.60;21.20;;;;;;;-4.53;82.74;96771.10;108032;1271;59700;-69
2021/11/26 03:34:00;;;;;;;46.70;25.50;;;;;;;-4.67;82.24;96766.80;108000;1276;71393;-69
2021/11/26 03:36:30;;;;;;;45.30;26.30;;;;;;;-4.86;81.68;96763.48;108027;1276;67484;-69
2021/11/26 03:39:02;;;;;;;53.90;29.70;;;;;;;-5.00;81.76;96759.58;107980;1276;69101;-69
2021/11/26 03:41:31;;;;;;;32.20;21.20;;;;;;;-5.17;81.90;96747.52;108079;1272;59718;-69
2021/11/26 03:44:01;;;;;;;29.50;17.80;;;;;;;-5.27;82.12;96738.04;107942;1275;59726;-68
2021/11/26 03:46:31;;;;;;;40.60;23.00;;;;;;;-5.31;82.43;96732.70;107956;1275;71112;-68
2021/11/26 03:49:01;;;;;;;45.40;25.00;;;;;;;-5.33;82.47;96738.02;107996;1276;68613;-68
2021/11/26 03:51:33;;;;;;;45.50;25.80;;;;;;;-5.32;82.49;96743.94;107949;1275;68635;-68
2021/11/26 03:54:03;;;;;;;54.50;30.00;;;;;;;-5.26;83.16;96745.34;108116;1276;59779;-68
2021/11/26 03:56:32;;;;;;;48.50;26.80;;;;;;;-5.24;83.48;96742.05;108027;1271;59743;-68
2021/11/26 03:59:05;;;;;;;48.00;27.60;;;;;;;-5.24;83.71;96735.27;107911;1277;70568;-68
2021/11/26 04:01:35;;;;;;;40.40;24.40;;;;;;;-5.26;83.83;96727.34;108033;1276;68455;-68
2021/11/26 04:04:05;;;;;;;;;;;;;;;-5.28;83.61;96722.77;108007;1275;68684;-68
2021/11/26 04:06:35;;;;;;;43.70;25.00;;;;;;;-5.29;83.56;96719.91;108016;1274;59773;-68
2021/11/26 04:09:05;;;;;;;19.40;12.00;;;;;;;-5.29;83.58;96717.05;108016;1275;59706;-68
2021/11/26 04:11:36;;;;;;;19.70;13.20;;;;;;;-5.28;83.45;96717.17;107987;1276;71366;-68
2021/11/26 04:14:06;;;;;;;;;;;;;;;-5.24;83.19;96721.85;107806;1277;68733;-68
2021/11/26 04:16:36;;;;;;;24.40;14.90;;;;;;;-5.23;83.19;96719.28;107764;1277;68605;-68
2021/11/26 04:19:05;;;;;;;;;;;;;;;-5.23;83.64;96714.85;107947;1276;59771;-68
2021/11/26 04:21:36;;;;;;;26.50;15.30;;;;;;;-5.22;83.36;96706.00;107971;1276;59739;-68
2021/11/26 04:24:06;;;;;;;25.20;13.80;;;;;;;-5.19;83.29;96702.04;107812;1275;71572;-69
2021/11/26 04:26:35;;;;;;;21.50;13.20;;;;;;;-5.18;83.29;96701.15;107998;1272;67779;-68
2021/11/26 04:29:04;;;;;;;21.80;14.60;;;;;;;-5.17;83.17;96698.93;108016;1274;69273;-68
2021/11/26 04:31:34;;;;;;;33.70;21.70;;;;;;;-5.15;83.32;96684.77;108038;1271;59741;-67
2021/11/26 04:34:03;;;;;;;57.50;34.70;;;;;;;-5.14;83.27;96676.58;108014;1272;59744;-68
2021/11/26 04:36:32;;;;;;;40.30;24.90;;;;;;;-5.13;83.35;96678.95;107967;1275;70816;-67
2021/11/26 04:39:04;;;;;;;38.20;20.20;;;;;;;-5.09;83.52;96686.02;108108;1274;67830;-67
2021/11/26 04:41:34;;;;;;;26.40;14.50;;;;;;;-5.06;83.66;96687.65;107945;1275;69460;-69
2021/11/26 04:44:04;;;;;;;54.00;29.80;;;;;;;-5.06;83.77;96686.97;108025;1272;59770;-68
2021/11/26 04:46:33;;;;;;;57.20;30.40;;;;;;;-5.08;83.41;96689.56;108112;1274;59735;-68
2021/11/26 04:49:05;;;;;;;46.50;28.00;;;;;;;-5.10;83.50;96692.67;107872;1272;71692;-67
2021/11/26 04:51:35;;;;;;;46.20;26.80;;;;;;;-5.11;83.89;96689.63;108032;1273;68642;-68
2021/11/26 04:54:04;;;;;;;48.10;28.10;;;;;;;-5.18;83.86;96690.12;108041;1272;68286;-67
2021/11/26 04:56:33;;;;;;;37.70;21.50;;;;;;;-5.26;83.78;96694.88;107938;1271;59776;-68
2021/11/26 04:59:03;;;;;;;35.00;19.20;;;;;;;-5.33;83.63;96694.52;108137;1274;59777;-67
2021/11/26 05:01:32;;;;;;;22.20;14.90;;;;;;;-5.36;83.84;96697.48;108021;1275;71944;-70
2021/11/26 05:04:02;;;;;;;38.80;23.30;;;;;;;-5.37;83.72;96691.55;108038;1273;68617;-67
2021/11/26 05:06:34;;;;;;;26.80;18.40;;;;;;;-5.38;84.11;96686.98;107999;1275;69457;-68
2021/11/26 05:09:08;;;;;;;20.00;11.10;;;;;;;-5.39;83.97;96682.27;108018;1275;59772;-68
2021/11/26 05:11:38;;;;;;;28.10;17.80;;;;;;;-5.41;84.06;96682.81;108029;1274;59771;-68
2021/11/26 05:14:16;;;;;;;20.90;11.80;;;;;;;-5.43;84.02;96684.39;108039;1272;70159;-68
2021/11/26 05:16:46;;;;;;;37.00;21.60;;;;;;;-5.45;83.90;96681.88;108024;1272;68818;-68
2021/11/26 05:19:16;;;;;;;29.60;19.10;;;;;;;-5.45;83.89;96683.08;107988;1275;68623;-68
2021/11/26 05:21:46;;;;;;;22.10;14.90;;;;;;;-5.45;83.94;96682.55;108032;1275;59718;-68
2021/11/26 05:24:15;;;;;;;24.10;15.70;;;;;;;-5.45;83.60;96675.42;107985;1276;59772;-68
2021/11/26 05:26:44;;;;;;;28.30;16.30;;;;;;;-5.40;83.38;96672.42;108096;1272;70821;-68
2021/11/26 05:29:14;;;;;;;43.50;24.20;;;;;;;-5.36;83.48;96668.43;108108;1273;68627;-68
2021/11/26 05:31:44;;;;;;;25.40;15.90;;;;;;;-5.34;83.60;96667.03;108097;1276;69559;-68
2021/11/26 05:34:13;;;;;;;29.10;17.00;;;;;;;-5.29;83.71;96667.61;108073;1273;59748;-68
2021/11/26 05:36:43;;;;;;;37.80;22.20;;;;;;;-5.23;84.26;96671.03;108132;1272;59668;-68
2021/11/26 05:39:12;;;;;;;32.00;20.60;;;;;;;-5.17;84.61;96668.70;108091;1274;70817;-68
2021/11/26 05:41:41;;;;;;;34.10;21.70;;;;;;;-5.15;84.75;96667.79;108030;1275;68520;-68
2021/11/26 05:44:10;;;;;;;37.40;21.50;;;;;;;-5.16;84.51;96658.63;108088;1273;69448;-68
2021/11/26 05:46:40;;;;;;;36.60;21.80;;;;;;;-5.15;84.31;96654.19;108058;1271;59782;-68
2021/11/26 05:49:10;;;;;;;25.70;15.70;;;;;;;-5.12;84.44;96664.16;108093;1272;60094;-68
2021/11/26 05:51:39;;;;;;;27.70;16.10;;;;;;;-5.08;84.70;96660.51;108024;1271;70798;-68
2021/11/26 05:54:08;;;;;;;30.90;19.20;;;;;;;-5.03;85.23;96656.98;108065;1276;69300;-68
2021/11/26 05:56:37;;;;;;;37.40;20.60;;;;;;;-5.00;85.21;96655.73;108081;1272;68650;-68
2021/11/26 05:59:06;;;;;;;43.50;25.80;;;;;;;-5.01;84.89;96651.48;108055;1276;59751;-68
2021/11/26 06:01:35;;;;;;;20.10;12.20;;;;;;;-4.99;84.63;96646.51;108053;1272;59723;-68
2021/11/26 06:04:05;;;;;;;36.90;20.00;;;;;;;-4.96;84.68;96642.54;108140;1275;71680;-68
2021/11/26 06:06:34;;;;;;;28.80;18.70;;;;;;;-4.95;84.49;96641.33;108031;1275;67912;-68
2021/11/26 06:09:03;;;;;;;37.30;22.60;;;;;;;-4.93;84.45;96637.23;107982;1275;70046;-68
2021/11/26 06:11:32;;;;;;;32.10;19.80;;;;;;;-4.91;84.33;96630.02;108064;1276;59703;-68
2021/11/26 06:14:01;;;;;;;30.90;20.50;;;;;;;-4.87;84.28;96628.22;108012;1276;59764;-68
2021/11/26 06:16:31;;;;;;;17.40;12.30;;;;;;;-4.82;84.14;96632.02;107700;1272;473196;-68
2021/11/26 06:19:00;;;;;;;35.90;20.20;;;;;;;-4.75;83.87;96635.92;107762;1275;68698;-68
2021/11/26 06:21:29;;;;;;;42.70;25.60;;;;;;;-4.68;83.69;96630.98;108020;1271;69428;-68
2021/11/26 06:23:59;;;;;;;43.60;24.40;;;;;;;-4.64;83.79;96616.42;108002;1275;59773;-68
2021/11/26 06:26:30;;;;;;;27.60;15.80;;;;;;;-4.56;83.72;96601.43;108010;1276;59971;-68
2021/11/26 06:29:00;;;;;;;40.40;23.40;;;;;;;-4.45;83.73;96589.59;108030;1276;71580;-68
2021/11/26 06:31:29;;;;;;;39.50;23.80;;;;;;;-4.36;83.75;96586.28;108145;1272;68288;-68
2021/11/26 06:33:57;;;;;;;42.40;23.90;;;;;;;-4.30;83.57;96582.70;108040;1271;69433;-68
2021/11/26 06:36:27;;;;;;;43.30;25.00;;;;;;;-4.21;83.47;96572.92;108012;1276;59707;-69
2021/11/26 06:38:56;;;;;;;41.80;21.20;;;;;;;-4.11;83.32;96568.58;108028;1272;59706;-67
2021/11/26 06:41:25;;;;;;;36.60;21.00;;;;;;;-4.01;83.17;96562.49;107851;1275;70813;-68
2021/11/26 06:43:54;;;;;;;31.20;20.00;;;;;;;-3.87;83.11;96554.44;107893;1275;68640;-68
2021/11/26 06:46:23;;;;;;;33.40;20.60;;;;;;;-3.69;82.93;96545.04;107908;1276;68682;-68
2021/11/26 06:48:52;;;;;;;35.40;21.00;;;;;;;-3.40;82.76;96533.24;108038;1276;59745;-68
2021/11/26 06:51:21;;;;;;;34.20;22.20;;;;;;;-2.69;81.71;96519.29;108021;1273;59728;-68
2021/11/26 06:53:50;;;;;;;40.20;21.70;;;;;;;-1.86;79.57;96514.25;107982;1274;72326;-68
2021/11/26 06:56:19;;;;;;;39.00;21.70;;;;;;;-1.02;77.95;96510.25;108008;1276;67875;-67
2021/11/26 06:58:48;;;;;;;32.00;20.60;;;;;;;-0.13;76.10;96512.44;107896;1273;69542;-68
2021/11/26 07:01:17;;;;;;;34.60;22.20;;;;;;;0.73;74.96;96513.94;108028;1276;60085;-69
2021/11/26 07:03:49;;;;;;;35.60;22.80;;;;;;;1.66;73.03;96507.58;107881;1276;59758;-69
2021/11/26 07:06:22;;;;;;;21.00;13.70;;;;;;;2.58;70.44;96505.06;108005;1272;71229;-68
2021/11/26 07:08:51;;;;;;;41.80;29.10;;;;;;;3.46;66.44;96500.77;107968;1275;68493;-68
2021/11/26 07:11:20;;;;;;;40.00;27.80;;;;;;;4.26;68.46;96501.12;108043;1274;70074;-69
2021/11/26 07:13:49;;;;;;;28.60;19.70;;;;;;;4.98;67.59;96491.87;108031;1275;59727;-69
2021/11/26 07:16:19;;;;;;;43.50;29.70;;;;;;;5.64;65.48;96484.01;107985;1275;59701;-68
2021/11/26 07:18:48;;;;;;;54.60;37.70;;;;;;;6.22;64.23;96481.98;108051;1271;71547;-68
2021/11/26 07:21:17;;;;;;;48.80;32.70;;;;;;;6.65;59.61;96478.88;108048;1272;68682;-66
2021/11/26 07:23:47;;;;;;;49.20;33.90;;;;;;;7.02;57.33;96472.08;108026;1272;68654;-69
2021/11/26 07:26:16;;;;;;;57.90;41.10;;;;;;;7.54;54.71;96468.02;108006;1271;59714;-68
2021/11/26 07:28:45;;;;;;;65.40;46.20;;;;;;;7.95;48.82;96460.52;108055;1272;59738;-69
2021/11/26 07:31:15;;;;;;;56.80;40.50;;;;;;;8.26;50.77;96455.23;107961;1276;71598;-69
2021/11/26 07:33:45;;;;;;;56.50;39.90;;;;;;;8.32;49.71;96444.84;107781;1277;68617;-69
2021/11/26 07:36:14;;;;;;;58.90;42.60;;;;;;;8.71;50.08;96432.86;107834;1275;69588;-66
2021/11/26 07:38:43;;;;;;;48.90;34.60;;;;;;;9.26;48.23;96424.90;108105;1276;59703;-68
2021/11/26 07:41:12;;;;;;;54.80;38.10;;;;;;;9.78;48.30;96420.49;108039;1275;59770;-67
2021/11/26 07:43:41;;;;;;;36.60;26.90;;;;;;;10.23;45.69;96419.77;107990;1276;70721;-67
2021/11/26 07:46:10;;;;;;;37.80;27.40;;;;;;;10.61;43.58;96422.22;107898;1273;66799;-67
2021/11/26 07:48:39;;;;;;;45.20;33.40;;;;;;;10.80;43.90;96416.20;107989;1272;69283;-68
2021/11/26 07:51:08;;;;;;;48.50;36.40;;;;;;;11.11;44.40;96415.62;108103;1272;59745;-69
2021/11/26 07:53:39;;;;;;;50.60;39.40;;;;;;;11.37;44.52;96412.22;108115;1272;59774;-68
2021/11/26 07:56:08;;;;;;;49.00;36.70;;;;;;;11.45;42.03;96411.13;108036;1273;71577;-68
2021/11/26 07:58:38;;;;;;;37.00;28.80;;;;;;;11.33;40.54;96406.63;107891;1276;67812;-66
2021/11/26 08:01:07;;;;;;;40.80;31.20;;;;;;;11.13;40.20;96404.30;107986;1274;69989;-66
2021/11/26 08:03:36;;;;;;;43.10;32.80;;;;;;;11.11;40.52;96403.94;108009;1275;59811;-67
2021/11/26 08:06:07;;;;;;;;;;;;;;;10.85;40.38;96405.56;108080;1276;59745;-67
2021/11/26 08:08:36;;;;;;;37.30;23.90;;;;;;;10.45;40.52;96406.55;107995;1275;71553;-67
2021/11/26 08:11:05;;;;;;;30.50;21.40;;;;;;;10.18;40.52;96412.41;108089;1274;68623;-67
2021/11/26 08:13:36;;;;;;;29.00;21.60;;;;;;;9.84;41.36;96412.92;108099;1273;69462;-67
2021/11/26 08:16:08;;;;;;;27.20;21.00;;;;;;;9.52;41.58;96408.27;108067;1273;59773;-67
2021/11/26 08:18:36;;;;;;;27.20;19.70;;;;;;;9.39;42.78;96398.11;108034;1273;59658;-66
2021/11/26 08:21:06;;;;;;;24.60;18.70;;;;;;;9.90;42.33;96393.06;108013;1272;72193;-68
2021/11/26 08:23:35;;;;;;;32.10;21.90;;;;;;;10.72;42.00;96379.76;107993;1276;68683;-68
2021/11/26 08:26:04;;;;;;;25.10;17.90;;;;;;;11.77;40.89;96376.77;107945;1272;69357;-69
2021/11/26 08:28:33;;;;;;;24.00;18.40;;;;;;;12.89;40.32;96373.02;107988;1272;58565;-68
2021/11/26 08:31:02;;;;;;;25.20;17.20;;;;;;;13.95;39.31;96365.14;107919;1276;59694;-66
2021/11/26 08:33:32;;;;;;;28.50;21.70;;;;;;;14.77;37.84;96358.10;108022;1272;71041;-66
2021/11/26 08:36:00;;;;;;;35.30;25.60;;;;;;;15.17;35.91;96351.18;108040;1275;67892;-67
2021/11/26 08:38:29;;;;;;;38.10;28.10;;;;;;;14.73;33.83;96341.20;107923;1276;68633;-67
2021/11/26 08:40:58;;;;;;;34.70;26.60;;;;;;;13.93;34.53;96336.45;108009;1273;59693;-66
2021/11/26 08:43:27;;;;;;;36.80;26.90;;;;;;;14.07;35.15;96332.59;107942;1275;59780;-67
2021/11/26 08:45:56;;;;;;;38.60;26.70;;;;;;;14.08;34.87;96327.73;108006;1273;71545;-67
2021/11/26 08:48:25;;;;;;;37.00;28.70;;;;;;;13.88;34.81;96324.17;107780;1276;66940;-68
2021/11/26 08:50:55;;;;;;;40.00;29.80;;;;;;;13.55;35.58;96319.11;107954;1273;68811;-67
2021/11/26 08:53:24;;;;;;;37.10;29.50;;;;;;;13.51;35.93;96312.77;107977;1272;61243;-66
2021/11/26 08:55:54;;;;;;;43.40;30.60;;;;;;;13.50;35.51;96311.83;108001;1276;59717;-70
2021/11/26 08:58:23;;;;;;;40.10;29.90;;;;;;;13.40;35.42;96306.17;107976;1274;71538;-67
2021/11/26 09:00:52;;;;;;;40.80;29.90;;;;;;;13.19;35.65;96289.85;107820;1275;68718;-67
2021/11/26 09:03:24;;;;;;;37.80;28.20;;;;;;;13.14;35.88;96276.07;107954;1275;68784;-69
2021/11/26 09:05:54;;;;;;;36.50;25.50;;;;;;;13.45;35.49;96264.67;107936;1277;59706;-69
2021/11/26 09:08:23;;;;;;;33.80;25.80;;;;;;;14.23;35.37;96248.71;107970;1276;59679;-67
2021/11/26 09:10:53;;;;;;;34.90;26.90;;;;;;;15.03;34.22;96238.46;107925;1275;71365;-67
2021/11/26 09:13:22;;;;;;;34.00;26.20;;;;;;;15.32;32.75;96233.08;108020;1275;66992;-66
2021/11/26 09:15:51;;;;;;;33.50;25.70;;;;;;;15.24;32.38;96231.16;108018;1272;68669;-67
2021/11/26 09:18:21;;;;;;;30.10;22.70;;;;;;;14.88;33.07;96225.46;108029;1272;60161;-66
2021/11/26 09:20:52;;;;;;;34.10;26.70;;;;;;;14.82;32.86;96215.39;108136;1275;59736;-67
2021/11/26 09:23:22;;;;;;;29.00;22.90;;;;;;;14.66;32.90;96209.06;107902;1272;71570;-67
2021/11/26 09:25:52;;;;;;;;;;;;;;;14.41;33.06;96198.21;107962;1272;66851;-67
2021/11/26 09:28:22;;;;;;;30.10;21.90;;;;;;;13.83;34.21;96184.77;108058;1272;70095;-67
2021/11/26 09:30:52;;;;;;;31.70;22.30;;;;;;;13.77;34.59;96184.41;108037;1272;59782;-67
2021/11/26 09:33:23;;;;;;;30.90;23.30;;;;;;;13.35;34.93;96179.12;107964;1275;59664;-68
2021/11/26 09:35:57;;;;;;;29.60;22.00;;;;;;;12.72;35.77;96169.78;108039;1275;70825;-68
2021/11/26 09:38:27;;;;;;;25.30;18.10;;;;;;;11.96;37.15;96156.16;108027;1275;68677;-68
2021/11/26 09:40:57;;;;;;;30.80;23.00;;;;;;;11.89;37.83;96144.14;108119;1272;68703;-67
2021/11/26 09:43:26;;;;;;;30.70;23.60;;;;;;;11.80;38.01;96135.43;107988;1272;59760;-68
2021/11/26 09:45:56;;;;;;;29.10;22.30;;;;;;;11.62;38.38;96121.84;108039;1272;60087;-68
2021/11/26 09:48:25;;;;;;;31.70;24.10;;;;;;;11.53;38.84;96114.46;108004;1275;71667;-68
2021/11/26 09:50:54;;;;;;;31.30;23.90;;;;;;;11.60;38.83;96116.40;107981;1272;68694;-68
2021/11/26 09:53:27;;;;;;;33.80;26.60;;;;;;;11.15;39.24;96112.36;107848;1273;70011;-68
2021/11/26 09:56:05;;;;;;;35.90;25.60;;;;;;;10.52;40.37;96116.77;108026;1274;59770;-68
2021/11/26 09:58:35;;;;;;;35.00;24.50;;;;;;;10.41;40.85;96115.55;107930;1274;59704;-68
2021/11/26 10:01:08;;;;;;;38.50;26.30;;;;;;;10.77;40.62;96101.20;108008;1273;70575;-67
2021/11/26 10:03:49;;;;;;;35.70;25.00;;;;;;;10.99;40.06;96094.57;108037;1275;67881;-67
2021/11/26 10:06:20;;;;;;;;;;;;;;;10.65;40.67;96084.90;108050;1272;69471;-69
2021/11/26 10:09:09;;;;;;;29.60;20.60;;;;;;;10.37;41.27;96072.42;108065;1273;59781;-69
2021/11/26 10:11:54;;;;;;;31.00;22.60;;;;;;;10.43;41.11;96071.84;108050;1272;59754;-69
2021/11/26 10:14:30;;;;;;;33.50;24.80;;;;;;;10.03;41.63;96072.89;108020;1275;70995;-69
2021/11/26 10:17:16;;;;;;;34.30;24.10;;;;;;;9.42;43.18;96070.21;107862;1277;68639;-69
2021/11/26 10:19:51;;;;;;;31.40;23.90;;;;;;;9.09;43.97;96058.21;107982;1276;69486;-69
2021/11/26 10:22:21;;;;;;;38.60;26.40;;;;;;;9.04;44.24;96066.11;108079;1272;59745;-69
2021/11/26 10:25:10;;;;;;;29.60;23.30;;;;;;;9.41;44.31;96066.25;108065;1276;60224;-69
2021/11/26 10:27:57;;;;;;;21.40;15.60;;;;;;;10.02;42.92;96052.38;107951;1272;71597;-68
2021/11/26 10:30:30;;;;;;;28.40;19.60;;;;;;;10.97;40.94;96042.77;108019;1276;67688;-69
2021/11/26 10:33:30;;;;;;;25.30;18.80;;;;;;;11.88;39.68;96034.63;108116;1272;70134;-67
2021/11/26 10:36:02;;;;;;;22.50;16.00;;;;;;;12.30;38.42;96021.63;107368;1284;59932;-67
2021/11/26 10:38:35;;;;;;;29.50;21.90;;;;;;;12.83;37.68;96015.70;107477;1284;59724;-68
2021/11/26 10:41:14;;;;;;;31.90;23.80;;;;;;;13.21;37.16;96011.02;107446;1279;71149;-67
2021/11/26 10:44:00;;;;;;;27.60;20.90;;;;;;;13.82;36.28;95997.05;107362;1285;68684;-67
2021/11/26 10:59:59;;;;;;;32.10;23.10;;;;;;;16.20;33.18;95957.20;107383;1284;68860;-68
2021/11/26 11:02:35;;;;;;;26.30;20.90;;;;;;;15.49;33.19;95952.73;107405;1284;59734;-66
2021/11/26 11:05:06;;;;;;;31.30;23.50;;;;;;;14.58;34.21;95953.13;107411;1282;59821;-68
2021/11/26 11:07:41;;;;;;;31.40;24.40;;;;;;;13.74;35.58;95957.03;107506;1280;72139;-68
2021/11/26 11:10:23;;;;;;;31.00;22.80;;;;;;;12.95;36.72;95949.05;107454;1282;68735;-67
2021/11/26 11:12:53;;;;;;;27.70;18.10;;;;;;;12.58;37.18;95935.64;107744;1273;68771;-67
2021/11/26 11:15:22;;;;;;;27.70;20.60;;;;;;;12.49;38.18;95932.20;108060;1272;60007;-66
2021/11/26 11:17:51;;;;;;;51.20;32.70;;;;;;;12.38;38.63;95930.04;107982;1276;59697;-67
2021/11/26 11:20:23;;;;;;;33.40;22.30;;;;;;;11.98;39.04;95915.59;107983;1275;71616;-69
2021/11/26 11:22:52;;;;;;;60.30;34.80;;;;;;;11.74;39.88;95903.89;107993;1275;68645;-67
2021/11/26 11:25:27;;;;;;;60.10;34.20;;;;;;;11.62;40.52;95894.13;107968;1275;69524;-68
2021/11/26 11:28:01;;;;;;;61.20;34.80;;;;;;;11.51;40.88;95876.34;107992;1275;59789;-68
2021/11/26 11:30:30;;;;;;;42.60;23.70;;;;;;;11.41;41.41;95863.45;108019;1275;59768;-68
2021/11/26 11:32:59;;;;;;;39.20;23.10;;;;;;;11.31;41.65;95859.73;108090;1275;71585;-67
2021/11/26 11:35:31;;;;;;;29.40;19.50;;;;;;;11.22;41.84;95854.37;108085;1275;68598;-68
2021/11/26 11:38:01;;;;;;;33.90;23.80;;;;;;;11.15;42.19;95844.23;108019;1274;69698;-68
2021/11/26 11:40:34;;;;;;;27.30;18.90;;;;;;;11.10;42.89;95830.40;107979;1275;59982;-69